Delta Virtual Airport Information Service

Johannesburg OR Tambo International Airport

ICAO: FAOR Country: South Africa
Latitude: -26.1391 Longitude: 28.246
Latest Arrival : SAA204 (KJFK-FAOR) Latest Departure : SIA479 (B) (FAOR-WSSS)


WX CaptureLIVE
Data provided by noaa.gov | Fetched at 08:58:53

METAR : FAOR 041330Z 30008KT 270V050 CAVOK 20/M10 Q1024 NOSIG

TAF : FAOR 041000Z 0412/0518 27008KT CAVOK TX21/0413Z TN06/0504Z FM041700 33006KT CAVOK FM050000 19006KT CAVOK BECMG 0510/0512 33010KT


Runway Data for FAOR
Data provided by openaviationdata.com

Runway ID Mag Var Hdg Length Elevation Surface ILS Freq ILS Id ILS Slope

Johannesburg OR Tambo International Airport, South Africa
Use only for reference purposes



Not for navigational purposes.